COOLWX HOME

EXTREME HOME

OTHER COOLWX PAGES
    Coolwx Hit Images
    Extreme Weather
    Global Forecasts
    Hourly Model Forecasts
    Mesoscale Analysis
    Obs. Weather Database
    Offshore Weather Data
    Precipitation Type
    Record Breakers
    U.S. Weather Statistics


EXTREME WX CATEGORIES
   CITIES & VALUES:
       Temperature
       Dewpoint
       Heat Index
       Wind
       Wind Chill
       Pressure
       Pressure Change
       Precip Type/Intensity
       Precip Amount
       Thunderstorm
       Blizzard
       Visibility
       Astronomical
       Other
       Multiple
       Unknown
   CITIES & FULL REPORTS:
       Temperature
       Dewpoint
       Heat Index
       Wind
       Wind Chill
       Pressure
       Pressure Change
       Precip Type/Intensity
       Precip Amount
       Thunderstorm
       Blizzard
       Visibility
       Astronomical
       Other
       Multiple
   USA & WORLD PLOTS:
       Temperature
       Dewpoint
       Wind
       Wind Chill & Heat Index
       Pressure
       Pressure Change
       Precip Type/Intensity
       Precip Amount
       Thunderstorm
       Blizzard
       Visibility
       Astronomical
       Other
       Unknown
   REPEAT OFFENDERS:
       Today
       Yesterday
       This month
       This year
       Since 2007
   RSS:
       Feed
   ARCHIVE:
       2024061708
       2024061706
       2024061703
       2024061700
       2024061621
       2024061618
       2024061615
       2024061612
       2024061609
       2024061606
       2024061603
       2024061600
       2024061521
       2024061518
       2024061515
       2024061512
       2024061509
       2024061506
       2024061503
       2024061500
       2024061421
       2024061418
       2024061415
       2024061412

CONTACT
       Bob Hart
       (rhart at fsu.edu)

Extreme & Weird Weather of the World - Archive for 2024060921
Currently using 36065 observations from 5215 unique global stations over the past 3 hours.
Last Updated: Sun Jun 9 21:46:37 UTC 2024



1 station reporting temperature -55°C or colder

0 stations reporting temperature -50°C to -54°C

0 stations reporting temperature -45°C to -49°C

0 stations reporting temperature -40°C to -44°C

0 stations reporting temperature 55°C or warmer

0 stations reporting temperature 50°C to 54°C

0 stations reporting temperature 45°C to 49°C

29 stations reporting temperature 40°C to 44°C


6 stations reporting dewpoint 30°C or greater

16 stations reporting dewpoint 28-29°C

171 stations reporting dewpoint 26-27°C


1 station reporting wind gusts 70kt or stronger

0 stations reporting wind gusts 60-69kt

1 station reporting wind gusts 50-59kt

24 stations reporting wind gusts 40-49kt


1 station reporting (sustained) wind chill of -55°C or colder

0 stations reporting (sustained) wind chill of -50°C to -54°C

0 stations reporting (sustained) wind chill of -45°C to -49°C

1 station reporting (sustained) wind chill of -40°C to -44°C


1 station reporting heat index of 55°C or hotter

4 stations reporting heat index of 50°C to 54°C

16 stations reporting heat index of 45°C to 49°C

183 stations reporting heat index of 40°C to 44°C


1 station reporting sea level pressure < 950mb

  • NZCM: Williams Field, Antarctica [949.3mb, 28.03in]    
    NZCM 091956Z AUTO 32017G28KT 290V010 9999 -SN OVC041 M08/M18 A2803 RMK AO2 PK WND 31028/1955 SNB1956 SLP499 T10801178 $
    NZCM 091955Z AUTO 32017G28KT 290V010 9999 OVC041 M08/M18 A2803 RMK AO2 PK WND 32033/1918 SNE1900B1922E1923 SLP498 T10801178 $
    NZCM 091923Z AUTO 32022G33KT 9999 OVC050 M08/M17 A2802 RMK AO2 PK WND 32033/1918 SNE1900B1922E1923 SLP495 T10841174 $
    NZCM 091855Z AUTO 31026G34KT 9999 -SN OVC055 M08/M19 A2802 RMK AO2 PK WND 33034/1852 SNE1841B1855 SLP493 T10851192 $
    NZCM 091841Z AUTO 32024G32KT 9999 OVC060 M08/M19 A2803 RMK AO2 PK WND 32033/1823 SNE1841 SLP496 T10831188 $
1 station reporting sea level pressure 950mb - 959mb

  • NZCM: Williams Field, Antarctica [950.5mb, 28.06in]    
    NZCM 092138Z AUTO 32016G22KT 9999 OVC028 M08/M19 A2811 RMK AO2 PK WND 30026/2122 SNE2103B2119E2138 PRESRR SLP523 T10791186 $
    NZCM 092119Z AUTO 32020G26KT 9999 -SN OVC032 M08/M18 A2808 RMK AO2 PK WND 31026/2116 SNE2103B2119 SLP514 T10791184 $
    NZCM 092103Z AUTO 31014G25KT 280V340 9999 OVC036 M08/M19 A2808 RMK AO2 SNE2103 SLP512 T10781185 $
    NZCM 092055Z AUTO 31014G26KT 270V330 9999 -SN OVC034 M08/M19 A2807 RMK AO2 PK WND 32031/2024 SNB1956E2050B2054 SLP510 T10781185 53005 $
    NZCM 092054Z AUTO 31015G26KT 270V330 9999 -SN OVC034 M08/M19 A2807 RMK AO2 PK WND 32031/2024 SNB1956E2050B2054 SLP510 T10781185 $
    NZCM 092050Z AUTO 31018G27KT 9999 OVC034 M08/M19 A2806 RMK AO2 PK WND 32031/2024 SNB1956E2050 SLP508 T10791187 $
    NZCM 091755Z AUTO 32023G34KT 9999 -SN OVC049 M09/M17 A2805 RMK AO2 PK WND 32034/1751 SNB1724 SLP505 T10891168 11086 21108 56033 $
0 stations reporting sea level pressure 960mb - 969mb

2 stations reporting sea level pressure 970mb - 979mb

  • PACX: UNKNOWN, [973.8mb, 28.75in]    
    PACX 092056Z AUTO 06007G21KT 030V110 10SM CLR 23/05 A2986 RMK AO2 SLP738 T02330050 58010
    PACX 091956Z AUTO 08011G22KT 10SM CLR 22/05 A2987 RMK AO2 SLP741 T02220050
    PACX 091856Z AUTO 05012G20KT 10SM CLR 22/06 A2988 RMK AO2 SLP745 T02170056
    PACX 091756Z AUTO 07011G18KT 10SM CLR 21/05 A2988 RMK AO2 SLP747 T02060050 10211 20128 58013
  • PFTO: UNKNOWN, [972.2mb, 28.70in]    
    PFTO 092056Z AUTO VRB06KT 10SM CLR 22/M01 A2976 RMK AO2 SLP722 T02221011 57011 $
    PFTO 091956Z AUTO VRB05KT 10SM CLR 21/M02 A2977 RMK AO2 SLP725 T02111022 $
    PFTO 091856Z AUTO 10007KT 10SM CLR 21/M02 A2978 RMK AO2 SLP728 T02111017 $
    PFTO 091756Z AUTO 00000KT 10SM CLR 20/M02 A2979 RMK AO2 SLP732 T02001017 10200 20078 58002 $
10 stations reporting sea level pressure 980mb - 989mb

  • ENGM: Oslo / Gardermoen, Norway [988mb, 29.17in]    
    ENGM 092120Z 01004KT 9999 FEW010 SCT036 BKN055 08/06 Q0988
    ENGM 092050Z 03007KT 360V080 9999 -SHRA FEW010 BKN044 08/07 Q0988 NOSIG
    ENGM 092020Z 01003KT 340V060 9999 -SHRA FEW010 SCT023 BKN039 09/07 Q0988 NOSIG
    ENGM 091950Z 04003KT 350V120 9999 -SHRA FEW033 BKN046 09/07 Q0988 NOSIG
    ENGM 091920Z 03004KT 360V110 9999 FEW018CB SCT033 SCT057 09/07 Q0988 NOSIG
    ENGM 091850Z 05005KT 020V090 9999 VCSH FEW018CB SCT033 SCT057 09/07 Q0988 RESHRA NOSIG
    ENGM 091820Z 04005KT 010V070 9999 -SHRA FEW018CB BKN035 09/07 Q0988 NOSIG
    ENGM 091750Z 06006KT 010V110 9999 -SHRA FEW008 FEW019CB BKN020 09/07 Q0988
  • ENRO: Roros Lufthavn, Norway [987mb, 29.14in]    
    ENRO 092120Z AUTO 00000KT 9999 -RA SCT013/// BKN023/// OVC032/// 06/04 Q0987
    ENRO 092050Z AUTO 35003KT 310V020 9999 -RA BKN019/// BKN025/// OVC059/// 06/04 Q0988
    ENRO 092020Z AUTO 32006KT 290V360 9999 -RA SCT014/// BKN019/// OVC026/// 06/04 Q0988
    ENRO 091950Z AUTO 30003KT 9999 -RA BKN026/// OVC036/// 06/04 Q0988
    ENRO 091920Z AUTO 35003KT 9999 -RA NCD 06/04 Q0988
    ENRO 091850Z AUTO 35007KT 9999 -RA SCT020/// BKN049/// 07/04 Q0988
    ENRO 091820Z AUTO 01007KT 340V040 9999 -RA SCT019/// BKN031/// OVC094/// 07/04 Q0988
    ENRO 091750Z AUTO VRB02KT 9999 FEW042/// OVC061/// 09/03 Q0987
  • ENRY: Rygge, Norway [989mb, 29.20in]    
    ENRY 092120Z AUTO 23004KT 9999 BKN043/// 09/07 Q0989 RERA
    ENRY 092050Z AUTO 20004KT 9999 -RA BKN035/// BKN042/// 09/07 Q0989 REDZ RESHRA
    ENRY 092020Z AUTO 24004KT 190V270 9000 RA ///043/// 09/07 Q0989
    ENRY 091820Z AUTO 31004KT 280V340 9999 -RA FEW035/// SCT046/// BKN055/// 10/// Q0989
    ENRY 091750Z AUTO 30004KT 9999 -DZ FEW030/// SCT039/// BKN059/// 10/07 Q0989 RERA
  • ENSG: Sogndal / Haukasen, Norway [989mb, 29.20in]    
    ENSG 091820Z 22004KT 190V250 9999 FEW010 SCT025 BKN055 07/05 Q0989 RMK WIND 3806FT 28013KT
    ENSG 091750Z 23005KT 9999 FEW010 SCT025 BKN042 07/04 Q0989 RMK WIND 3806FT 28014KT
  • ENTO: Torp, Norway [989mb, 29.20in]    
    ENTO 092120Z AUTO 24005KT 9999 NCD 08/08 Q0989
    ENTO 092050Z 26004KT 9999 VCSH SCT020CB BKN044 09/09 Q0989 NOSIG
    ENTO 092020Z 26004KT 230V290 9999 -SHRA SCT019CB BKN039 09/08 Q0989 NOSIG
    ENTO 091950Z 27004KT 240V300 9999 VCSH SCT019CB BKN043 09/08 Q0989 RERA NOSIG
    ENTO 091920Z 26004KT 9999 -RA FEW030 BKN043 10/07 Q0989
    ENTO 091820Z 24009KT 9999 DZ FEW037 BKN048 12/05 Q0989
    ENTO 091750Z 21008KT 9999 -SHRA FEW025CB SCT050 13/06 Q0989
  • ESKM: Siljan / Mora, Sweden [989mb, 29.20in]    
    ESKM 092120Z AUTO VRB03KT 9999 SCT076/// 07/05 Q0989
    ESKM 092050Z AUTO VRB01KT 9999 BKN070/// 06/05 Q0989
    ESKM 092020Z AUTO 16003KT 9999 NCD 08/05 Q0989
    ESKM 091950Z AUTO 19004KT 9999 FEW094/// 09/05 Q0989
    ESKM 091920Z AUTO 20004KT 170V240 9999 NCD 09/05 Q0989
    ESKM 091850Z AUTO 20005KT 160V240 9999 NCD 10/05 Q0989
    ESKM 091820Z AUTO 19006KT 150V240 9999 NCD 10/05 Q0989
    ESKM 091750Z AUTO 19007KT 160V220 9999 NCD 11/04 Q0989
  • ESKS: Strangnas AB, Sweden [988mb, 29.17in]    
    ESKS 092120Z AUTO 14004KT 9999 OVC030/// 05/04 Q0988
    ESKS 092050Z AUTO 14003KT 9999 OVC026/// 05/04 Q0988
    ESKS 092020Z AUTO 14003KT 120V170 9999 SCT025/// BKN190/// 05/04 Q0988
    ESKS 091950Z AUTO 14003KT 110V180 9999 FEW025/// SCT036/// BKN200/// 06/04 Q0988
    ESKS 091920Z AUTO 14004KT 9999 FEW062/// 06/04 Q0988
    ESKS 091850Z AUTO 15004KT 9999 FEW051/// 06/04 Q0988
    ESKS 091820Z AUTO 15007KT 9999 FEW026/// SCT031/// 08/04 Q0988
    ESKS 091750Z AUTO 18008KT 150V210 9999 SCT028/// BKN050/// BKN058/// 09/04 Q0988 RERA RESHRA
  • ESND: Sveg Airport, Sweden [988mb, 29.17in]    
    ESND 092120Z AUTO 11003KT 9999 BKN038/// OVC052/// 07/04 Q0988
    ESND 092050Z AUTO 12005KT 090V150 9999 SCT038/// BKN046/// BKN062/// 08/04 Q0988
    ESND 092020Z AUTO 06003KT 9999 FEW046/// BKN057/// OVC077/// 08/04 Q0988
    ESND 091950Z AUTO 00000KT 9999 BKN042/// OVC065/// 08/04 Q0988
    ESND 091920Z AUTO 19003KT 160V230 9999 -RA FEW021/// BKN039/// 08/04 Q0988
    ESND 091850Z AUTO 18003KT 100V220 9999 FEW019/// BKN049/// 08/05 Q0988
    ESND 091820Z AUTO 28004KT 250V350 9999 -RA FEW017/// SCT026/// BKN055/// 07/05 Q0988
    ESND 091750Z AUTO 25009KT 9999 SCT051/// BKN063/// BKN100/// 08/05 Q0988
  • ESNZ: Ostersund Froson, Sweden [986mb, 29.11in]    
    ESNZ 092120Z AUTO 13012KT 9999 -RA FEW009/// BKN022/// BKN028/// 06/05 Q0987
    ESNZ 092050Z AUTO 14012KT 8000 -RA SCT010/// BKN016/// OVC022/// 06/05 Q0987 RERA
    ESNZ 092020Z 11008KT 9999 -DZ SCT009 BKN013 OVC023 07/06 Q0987
    ESNZ 091950Z 14007KT 9999 -DZ FEW017 OVC024 07/06 Q0986
    ESNZ 091920Z 17008KT 9999 -RA FEW006 OVC015 06/06 Q0986
    ESNZ 091850Z 20009KT 8000 -RA FEW005 OVC026 07/06 Q0986
    ESNZ 091820Z 21011KT 7000 -RA FEW005 OVC026 06/06 Q0986
    ESNZ 091750Z 23010KT 7000 RA VV025 07/06 Q0987
  • ESST: Torsby Airport, Sweden [989mb, 29.20in]    
    ESST 092120Z AUTO 16006KT 120V180 9999 BKN057/// OVC100/// 08/07 Q0989
    ESST 092050Z AUTO 16006KT 9999 BKN057/// 08/08 Q0989
    ESST 092020Z AUTO 15006KT 9999 FEW025/// SCT030/// OVC051/// 09/08 Q0989
0 stations reporting sea level pressure > 1055mb

0 stations reporting sea level pressure 1050-1054mb

0 stations reporting sea level pressure 1045-1049mb

1 station reporting sea level pressure 1040-1044mb

  • FDMY: Mayiwane, Swaziland [1043mb, 30.79in]    
    FDMY 092000Z AUTO 00000KT //// // ////// 10/07 Q1043
    FDMY 091900Z AUTO 00000KT //// // ////// 11/07 Q1043
6 stations reporting sea level pressure 1035-1039mb

  • FAPP: Polokwane Intl, South Africa [1035mb, 30.56in]    
    FAPP 092000Z AUTO 29001KT //// // ////// 06/03 Q1035
    FAPP 091800Z 09004KT CAVOK 08/02 Q1035 NOSIG
  • FASI: Springs, South Africa [1037mb, 30.62in]    
    FASI 092100Z AUTO 13002KT //// // ////// 05/M00 Q1037
    FASI 092000Z AUTO 04001KT //// // ////// 05/M00 Q1037
    FASI 091900Z AUTO 30001KT //// // ////// 06/M00 Q1037
    FASI 091800Z AUTO 04001KT //// // ////// 07/M00 Q1037
  • FAVV: Vereeniging, South Africa [1035mb, 30.56in]    
    FAVV 092100Z AUTO 33004KT //// // ////// 02/M00 Q1035
    FAVV 092000Z AUTO 34002KT //// // ////// 03/M00 Q1035
    FAVV 091900Z AUTO 32002KT //// // ////// 05/M00 Q1035
    FAVV 091800Z AUTO 32003KT //// // ////// 08/M00 Q1035
  • FDPP: Piggs Peak, Swaziland [1036mb, 30.59in]    
    FDPP 092000Z AUTO 00000KT //// // ////// 11/04 Q1036
    FDPP 091900Z AUTO 00000KT //// // ////// 11/04 Q1036
  • SLLP: La Paz / Alto, Bolivia [1038mb, 30.65in]    
    SLLP 092100Z 27006KT 9999 FEW020 14/M12 Q1037
    SLLP 092000Z 23006KT 9999 FEW020 15/M11 Q1037
    SLLP 091900Z 27006KT 9999 FEW020 15/M12 Q1038
    SLLP 091800Z 24006KT 9999 FEW020 14/M12 Q1038
  • SPJL: Juliaca, Peru [1036mb, 30.59in]    
    SPJL 091900Z VRB03KT CAVOK 16/M13 Q1035 RMK BIRD HAZARD RWY 12/30 PP000
    SPJL 091800Z VRB03KT CAVOK 15/M13 Q1036 RMK BIRD HAZARD RWY 12/30 PP000


0 stations reporting 3-hourly pressure fall of 10mb or greater

0 stations reporting 3-hourly pressure fall of 5mb to 9.9mb

10 stations reporting 3-hourly pressure rise of 5mb to 9.9mb

  • CWAF: Ile Rouge, Canada [6.4mb]
    CWAF 091800Z AUTO 04009KT 09/09 RMK AO1 T00930092 50064
  • CWDT: Chute Des Passes, Canada [7.4mb]
    CWDT 091800Z AUTO RMK AO1 5PAST HR 7009 P0002 50074
  • CWHQ: Deschambaults , Que., Canada [5.4mb]
    CWHQ 092100Z AUTO 21001KT 14/12 RMK AO1 5PAST HR M P0002 T01390123 50054
  • CWIT: Saint Clothilde, Canada [6.4mb]
    CWIT 091900Z AUTO 23003KT 16/14 RMK AO1 4PAST HR 6008 SLP978 P0025 T01550138 50064
  • CWIZ: L'Acadie, Canada [5.6mb]
    CWIZ 091800Z AUTO 30006G18KT 14/10 RMK AO1 8PAST HR M PK WND 31018/1753 P0019 T01360101 50056
  • CWJB: Ste Foy CS , Que., Canada [5.2mb]
    CWJB 091800Z AUTO 20005KT 14/13 RMK AO1 3PAST HR M P0005 T01410131 50052
  • CWJO: Jonquiere, Canada [7.2mb]
    CWJO 091800Z AUTO 25003KT 15/13 RMK AO1 2PAST HR 8005 SLP949 P0001 T01530133 50072
  • CWJT: St Jovite, Canada [7.3mb]
    CWJT 091800Z AUTO 00000KT 15/14 RMK AO1 2PAST HR 8012 SLP978 P0001 T01460142 50073
  • CWVQ: Ste Anne De Bell 1, Canada [9.7mb]
    CWVQ 091800Z AUTO 27009KT 18/12 RMK AO1 2PAST HR 8018 SLP972 P0001 T01830123 50097
  • CXDI: Delhi CS, Ont., Canada [9.0mb]
    CXDI 091900Z AUTO 22006KT 17/15 RMK AO1 7PAST HR 8018 PK WND 29019/1833 SLP044 P0022 T01670149 50057
    CXDI 092000Z AUTO 24006KT 17/14 RMK AO1 8017 SLP040 T01720139 50057
    CXDI 092100Z AUTO 30007G17KT 14/12 RMK AO1 3PAST HR 5008 PK WND 34020/2041 SLP047 P0013 T01430122 50090
5 stations reporting 3-hourly pressure rise of 10mb or greater

  • CWIT: Saint Clothilde, Canada [12.8mb]
    CWIT 092000Z AUTO 24002KT 13/12 RMK AO1 4PAST HR 6004 PK WND 26020/1903 SLP978 P0025 T01310118 50128
    CWIT 092100Z AUTO 23006KT 17/13 RMK AO1 7002 SLP977 T01660127 50128
  • CWIX: Mistook, Canada [16.0mb]
    CWIX 091800Z AUTO 15/14 RMK AO1 1PAST HR 6006 SLP945 P0000 T01510135 50160
  • CWUX: La Baie , Que., Canada [12.2mb]
    CWUX 091800Z AUTO 06003KT 14/14 RMK AO1 2PAST HR 8010 SLP950 P0001 T01410141 50122
  • CXVN: Vineland (au8), ON, Canada [16.2mb]
    CXVN 092100Z AUTO 00000KT 15/13 RMK AO1 6PAST HR 6002 PK WND 34024/2015 SLP035 P0049 T01520134 50162
  • KDYS: Abilene, Dyess AFB, TX, United States [15.6mb]
    KDYS 091755Z 09004KT 10SM CLR 33/21 A2995 RMK AO2A SLPNO ALSTG DATA ESTMD T03270212 10333 20236 52156


0 stations reporting heavy snow

1 station reporting any sleet

  • CYVP: Kuujjuaq, Que., Canada
    CYVP 092009Z 01014G19KT 15SM -PL OVC006 00/M00 A2975 RMK ST8 SLP078
    CYVP 092031Z 01009G19KT 12SM -RAPL OVC006 00/M00 A2974 RMK ST8 SLP077
1 station reporting any freezing rain

  • SCNT: Puerto Natales, Chile
    SCNT 091900Z VRB03KT 9000 -FZRA FEW001 OVC015 M00/M00 Q1008
45 stations reporting heavy rain

  • CYND: Gatineau Airport, Canada
    CYND 091900Z 30012KT 290V360 15SM +SHRA BR BKN043CB BKN066 BKN083 15/12 A2948 RMK CB5AC1AC1 VIS W 5 SLP986 DENSITY ALT 800FT
  • CYTZ: Toronto Island Airport, Canada
    CYTZ 091849Z AUTO 35010G19KT 6SM +RA BR SCT038 BKN046 OVC066 15/13 A2963 RMK LTNG DIST SE PCPN 2.3MM PAST HR SLP035 DENSITY ALT 700FT
  • CYYZ: Toronto Pearson Int'L. Ont., Canada
    CYYZ 091830Z 30012KT 10SM +SHRA BKN034 OVC070 16/13 A2963 RMK SC7AC1 CVCTV CLD EMBD SLP036 DENSITY ALT 1200FT
  • EFJO: Joensuu, Finland
    EFJO 091850Z AUTO 20007KT 170V240 6000 +SHRA OVC010 //////CB 11/10 Q0999
  • EFKE: Kemi, Finland
    EFKE 091920Z AUTO 20006KT 150V230 9999 +SHRA OVC032 //////CB 12/10 Q0996
  • EFKI: Kajaani, Finland
    EFKI 092020Z AUTO 21010KT 9999 +SHRA OVC014 //////CB 10/08 Q0997
  • EFSA: Savonlinna, Finland
    EFSA 091750Z AUTO 25003KT 220V290 9000 +SHRA FEW022 OVC044 //////CB 10/09 Q0999
  • EGCC: Manchester Airport, United Kingdom
    EGCC 092020Z AUTO 18003KT 130V220 3400 +RA BKN010/// BKN020/// BKN029/// //////CB 11/10 Q1008
  • EGCK: Caernarfon, United Kingdom
    EGCK 092050Z AUTO 25014KT 2600 +RA FEW002/// SCT011/// BKN015/// 13/11 Q1009
  • EGNS: Isle Of Man, United Kingdom
    EGNS 091750Z 08005KT 040V120 3000 +RA FEW004 SCT007 OVC014 11/10 Q1009
    EGNS 091820Z 05007KT 9000 +RA FEW006 SCT014 OVC040 10/08 Q1008
  • EGOV: Valley, United Kingdom
    EGOV 092050Z AUTO 32011KT 4400 +RA OVC005/// 11/10 Q1009
  • K1A6: Middlesboro-bell, KY, United States
    K1A6 091935Z AUTO 34005KT 7SM +RA BKN025 OVC030 23/21 A2985 RMK AO2 P0002 T02330208
    K1A6 091955Z AUTO 00000KT 1 1/4SM +RA SCT013 BKN023 OVC034 22/21 A2985 RMK AO2 P0012 T02220210
  • KAXX: Angel Fire, NM, United States
    KAXX 091935Z AUTO 18008G12KT 3SM +RA SCT017 SCT035 OVC055 17/10 A3035 RMK AO2 P0013 T01680098
  • KBUF: Buffalo, Greater Buffalo Intl Arpt, NY, United States
    KBUF 092133Z 30011G17KT 1 1/2SM +RA SCT018 BKN038 OVC050 14/11 A2965 RMK AO2 PK WND 24031/2101 WSHFT 2111 LTG DSNT W P0003 T01440111
    KBUF 092139Z 28006G17KT 2 1/2SM +RA FEW018 BKN035 OVC046 14/11 A2964 RMK AO2 PK WND 24031/2101 WSHFT 2111 LTG DSNT W P0008 T01390111
  • KFSO: Highgate, VT, United States
    KFSO 091915Z AUTO 00000KT 2SM +RA SCT025 BKN047 OVC090 17/15 A2947 RMK AO2 VIS 1V5 T01690149
  • KFVE: Frenchville, ME, United States
    KFVE 092124Z AUTO 24006KT 1 3/4SM +RA BR SCT013 BKN050 OVC070 14/12 A2938 RMK AO2 P0006 T01440122 $
  • KGVQ: Batavia, NY, United States
    KGVQ 091956Z AUTO 26011G23KT 3SM +RA BR SCT014 BKN023 BKN045 15/13 A2964 RMK AO2 LTG DSNT NE RAE27B48 SLP036 P0009 T01500133
  • KHIE: Whitefield, NH, United States
    KHIE 092107Z AUTO 33005G22KT 2SM +RA SCT027 BKN036 OVC055 12/09 A2949 RMK AO2 LTG DSNT NE AND SW AND W RAB2057 P0007 T01220089
    KHIE 092115Z AUTO 31007KT 1 1/2SM +RA BR FEW027 BKN036 OVC060 12/10 A2950 RMK AO2 LTG DSNT SW RAB2057 P0014 T01170100
  • KHUL: Houlton, Houlton Intl Arpt, ME, United States
    KHUL 091753Z AUTO VRB03KT 1/2SM +RA FG SCT024 BKN029 OVC080 16/14 A2943 RMK AO2 RAE33B48 SLP968 P0018 60028 T01560139 10189 20156 58006
  • KHYA: Hyannis, MA, United States
    KHYA 091756Z 24013G21KT 2SM +RA BR FEW013 SCT048 OVC060 18/17 A2949 RMK AO2 SLP987 P0010 60013 T01780172 10200 20178 56017
  • KIAG: Niagara Falls, NY, United States
    KIAG 092018Z 24015KT 1 1/2SM R28R/6000VP6000FT +RA FEW024 BKN050 OVC060 17/13 A2962 RMK AO2 LTG DSNT W TSE16 P0009 T01670128
    KIAG 092040Z 29008KT 1SM R28R/3000VP6000FT +RA SCT027 BKN035 OVC055 16/13 A2963 RMK AO2 LTG DSNT E AND W AND NW TSE16 P0019 T01560128
  • KIUA: Canandaigua, NY, United States
    KIUA 091915Z AUTO 28011G19KT 7SM +RA SCT017 SCT044 BKN050 15/11 A2966 RMK AO2 P0002 T01530111
  • KLOZ: London, London-Corbin Airport-Magee Field, KY, United States
    KLOZ 091905Z AUTO 26007KT 1 3/4SM +RA BR SCT019 BKN050 OVC100 22/21 A2986 RMK AO2 P0005 T02220206
  • KOQT: Oak Ridge, TN, United States
    KOQT 092053Z AUTO VRB04KT 1/2SM +RA FG SCT021 BKN029 OVC038 23/22 A2983 RMK AO2 RAB41 PRESRR SLP088 P0002 60002 T02330217 56017
  • KROC: Rochester, Greater Rochester Intl Arpt, NY, United States
    KROC 092054Z 35014G19KT 1 1/2SM R04/3500VP6000FT +RA BR BKN027 BKN043 OVC050 14/12 A2965 RMK AO2 PK WND 27032/2016 SLP044 P0002 60002 T01440122 53006
    KROC 092105Z VRB04KT 2SM R04/3500V6000FT +RA BR BKN024 BKN034 OVC048 14/12 A2964 RMK AO2 P0029 T01390122
  • KSJT: San Angelo, Mathis Field, TX, United States
    KSJT 092035Z 14015G29KT 1SM VCTS +RA SCT038 BKN065 OVC075 23/19 A2986 RMK AO2 PK WND 09035/1955 LTG DSNT E AND SE RAB23 TSB13E29 P0018 T02280194 RVRNO
    KSJT 092051Z 12016G26KT 1 1/4SM VCTS +RA BKN032 OVC080 22/19 A2987 RMK AO2 PK WND 09035/1955 LTG DSNT E-S RAB23 TSB13E29 SLP092 P0052 60052 T02220189 53004
  • KSME: Somerset, Somerset-Pulaski County, KY, United States
    KSME 091915Z AUTO 29007KT 1 1/2SM +RA BR SCT004 SCT008 SCT021 22/21 A2984 RMK AO2
  • KTKX: Kenett, MO, United States
    KTKX 091935Z AUTO 07011KT 1 1/2SM +RA OVC013 20/19 A2990 RMK AO2
  • KU52: Beaver, UT, United States
    KU52 091915Z AUTO 25016G23KT 10SM +RA CLR 29/00 A3008 RMK AO2
    KU52 091935Z AUTO 24016G24KT 10SM +RA CLR 30/M00 A3007 RMK AO2
    KU52 091955Z AUTO 24011G23KT 10SM +RA 30/M01 A3007 RMK AO2
  • KVGC: Hamilton, NY, United States
    KVGC 092135Z AUTO 30008KT 260V330 7SM +RA SCT040 BKN050 BKN060 16/08 A2962 RMK AO2
  • KVJI: Abingdon, VA, United States
    KVJI 092035Z AUTO 34014G19KT 2 1/2SM +RA SCT011 BKN029 OVC049 21/18 A2984 RMK AO2 P0031 T02080179
  • KWVL: Waterville, ME, United States
    KWVL 091924Z AUTO 00000KT 2SM +RA BR SCT015 BKN026 OVC047 14/13 A2946 RMK AO2 P0010
  • LFLB: Chambery / Aix-Les-Bains, France
    LFLB 091930Z AUTO 19006KT 2700 +RA BR BKN024/// BKN029/// BKN034/// //////CB 16/15 Q1008
    LFLB 091930Z AUTO 19006KT 2700 +RA BR BKN024/// BKN029/// BKN034/// ///CB 16/15 Q1008
  • LSMP: Payerne, Switzerland
    LSMP 091920Z AUTO 04007KT 360V070 8000NDV +RA FEW008 BKN024 17/16 Q1007 RMK
    LSMP 091950Z AUTO 08003KT 050V130 6000NDV +RA BR FEW007 SCT014 BKN025 17/16 Q1008 RMK
    LSMP 092020Z AUTO 00000KT 2500NDV +RA BR FEW017 BKN034 BKN070 17/16 Q1008 RMK
    LSMP 092050Z AUTO VRB03KT 2600NDV +RA BR FEW013 SCT016 BKN025 16/16 Q1008 RMK
  • LSZG: Grenchen, Switzerland
    LSZG 092020Z AUTO 32006KT 280V020 2900 +RA BKN050 16/15 Q1008
  • LSZL: Locarno, Switzerland
    LSZL 091950Z AUTO 30003KT 260V350 6000NDV +RA FEW013 SCT025 BKN062 18/18 Q1007 RMK
  • MMCT: Chichen-Itza, Mexico
    MMCT 092056Z 28011KT 1 1/4SM +RA BKN020CB BKN100 OVC250 29/24 A2980 RMK 8/363 HZY
    MMCT 092125Z 18014KT 4SM BKN020CB OVC100 28/23 A2978 RMK 8/36/ HZY +RAE18
  • MUCC: Cayo Coco / Jardines Del Ray, Cuba
    MUCC 092006Z 26008KT 230V290 3000 +RA OVC010CB 24/24 Q1015 RMK CB ALL QUAD
    MUCC 092050Z 23010KT 200V270 5000 +RA OVC010CB 24/23 Q1014
  • MUHA: Habana, Cuba
    MUHA 092056Z 19010KT 160V230 1000 R06/0600V2100U R24/P2000D +SHRA BKN018TCU 25/24 Q1013
  • NLWW: Hihifo Ile Wallis, France
    NLWW 091900Z 12008G19KT 080V180 2500 R08/0900D +SHRA FEW018 FEW023TCU SCT040 26/25 Q1015
  • ROMD: Minamidaitojima, Japan
    ROMD 092112Z AUTO 24008KT 1000 +RA BR OVC002 //////CB 26/26 Q1010 RMK A2985 RI027 CB W-OHD-NE MOV E
  • RORK: Kitadaito Island, Japan
    RORK 092102Z AUTO 29010KT 3000 +RA BR FEW002 BKN005 BKN009 //////CB 25/25 Q1010 RMK A2985 RI017 CB OHD MOV UNKNOWN
    RORK 092106Z AUTO 28010KT 250V320 1100 +RA BR FEW002 SCT005 BKN007 //////CB 25/25 Q1010 RMK A2985 RI037 CB OHD MOV UNKNOWN
    RORK 092114Z AUTO 29013KT 0800 +RA FG FEW002 SCT009 BKN018 //////TCU 25/25 Q1010 RMK A2984 RI060 TCU OHD MOV E
  • SKGO: UNKNOWN,
    SKGO 092112Z 15008KT 100V170 9000 4000SE +RA VCSH VCTS BKN048CB BKN064 OVC095 26/20 Q1014
  • SMJP: Johan A. Pengel, Suriname
    SMJP 091813Z 17013KT 1500 +SHRA SCT010 FEW015CB BKN020 28/25 Q1011
    SMJP 091813Z 17013KT 1500 +SHRA SCT018 FEW015CB BKN020 28/25 Q1011
  • VOTV: Thiruvananthapuram, India
    VOTV 091830Z 31009KT 2000 +RA SCT010 SCT012 BKN080 27/25 Q1010
4 stations reporting unknown precipitation type

  • EBBL: Kleine Brogel, Belgium
    EBBL 092003Z AUTO VRB02KT 0450 UP NCD 12/06 Q1010 RED
  • KIZA: Santa Ynez, Santa Ynez Airport, CA, United States
    KIZA 091755Z AUTO VRB03KT 1/2SM UP HZ VV005 19/14 A2997 RMK AO2
  • KMEV: Minden-Tahoe Airport, NV, United States
    KMEV 091855Z AUTO VRB03KT 4SM UP HZ CLR 27/M08 A2998 RMK AO2
  • PAAD: Point Thomson Airstrip Deadhorse, AK, United States
    PAAD 091855Z AUTO 07018KT 10SM UP OVC003 00/M01 A3019 RMK AO2 T00011010


1 station reporting ice accretion in the past 1 hour

  • PASC: Deadhorse, Deadhorse Airport, AK, United States [0.01 inch]
    PASC 091753Z 06012KT 2SM BR OVC002 00/M02 A3018 RMK AO2 SLP221 VIS 1V3 I1001 I6004 T00001017 10000 21006 58009 $
0 stations reporting ice accretion in the past 3 hours

1 station reporting ice accretion in the past 6 hours

  • PASC: Deadhorse, Deadhorse Airport, AK, United States [0.04 inch]
    PASC 091753Z 06012KT 2SM BR OVC002 00/M02 A3018 RMK AO2 SLP221 VIS 1V3 I1001 I6004 T00001017 10000 21006 58009 $
0 stations reporting hourly snow depth increase (SNINCR) of 3+"

0 stations reporting hourly snow depth increase (SNINCR) of 2"

0 stations reporting hourly snow depth increase (SNINCR) of 1"

0 stations reporting hourly (melted) precip total of 3" or greater

0 stations reporting hourly (melted) precip total of 2-2.99"

0 stations reporting hourly (melted) precip total of 1-1.99"

5 stations reporting hourly (melted) precip total of 0.5-0.99"

  • K8A3: Livingston, TN, United States [0.65in]
    K8A3 091955Z AUTO VRB04G11KT 1 1/4SM BR BKN003 BKN008 BKN025 19/18 A2986 RMK A01 P0065 VIS 1/2V5
  • KMLC: McAlester, McAlester Regional Airport, OK, United States [0.70in]
    KMLC 092119Z AUTO VRB06KT 1SM +TSRA BR BKN036 OVC065 22/20 A2990 RMK AO2 LTG DSNT ALQDS P0061 T02220200
    KMLC 092125Z AUTO VRB04KT 2SM +TSRA BR BKN036 BKN070 BKN110 22/20 A2991 RMK AO2 LTG DSNT ALQDS P0064 T02220200
    KMLC 092143Z AUTO 14006KT 6SM -TSRA BR FEW050 SCT070 OVC110 22/21 A2990 RMK AO2 LTG DSNT SE-W P0070 T02170206
  • KOQT: Oak Ridge, TN, United States [0.73in]
    KOQT 092110Z AUTO 30003KT 1/2SM -RA FG SCT015 BKN026 BKN070 22/19 A2984 RMK AO2 P0073 T02170194
    KOQT 092112Z AUTO 00000KT 2SM -RA BR SCT017 BKN026 BKN070 22/20 A2984 RMK AO2 P0073 T02220200
    KOQT 092115Z AUTO 00000KT 9SM -RA SCT015 BKN075 22/20 A2984 RMK AO2 P0073 T02220200
  • KSJT: San Angelo, Mathis Field, TX, United States [0.52in]
    KSJT 092051Z 12016G26KT 1 1/4SM VCTS +RA BKN032 OVC080 22/19 A2987 RMK AO2 PK WND 09035/1955 LTG DSNT E-S RAB23 TSB13E29 SLP092 P0052 60052 T02220189 53004
  • KVJI: Abingdon, VA, United States [0.64in]
    KVJI 092055Z AUTO 31005KT 1 1/2SM RA BKN015 BKN026 OVC050 18/17 A2984 RMK AO2 VIS 1/2V5 P0064 60064 T01800170
0 stations reporting 3 or 6 hourly (melted) precip total of 5" or greater

0 stations reporting 3 or 6 hourly (melted) precip total of 4-4.99"

0 stations reporting 3 or 6 hourly (melted) precip total of 3-3.99"

0 stations reporting 3 or 6 hourly (melted) precip total of 2-2.99"


1 station reporting tornado, funnel cloud or waterspout

  • MUCU: Santiago De Cuba, Oriente, Cuba
    MUCU 091815Z 12008KT 100V160 8000 FC VCSH SCT018CB OVC020 29/26 Q1015 RMK CB AT III QUAD AD
0 stations reporting mammatus cloud

0 stations reporting hail

0 stations reporting thundersnow

0 stations reporting thundersleet

0 stations reporting thunder with freezing rain

78 stations reporting thunder with rain

  • CYHU: Saint Hubert Airport, Canada
    CYHU 092023Z AUTO 23018G24KT 9SM -TSRA FEW047 BKN060 OVC074 17/12 A2943 RMK SLP967 DENSITY ALT 900FT
    CYHU 092048Z AUTO 28012G19KT 9SM TSRA FEW028 SCT048 SCT060 OVC075 15/12 A2945 RMK WSHFT AT 2034Z PRESRR PCPN 0.5MM PAST HR SLP974 DENSITY ALT 700FT
  • CYND: Gatineau Airport, Canada
    CYND 091800Z 35006KT 15SM -TSRA SCT032CB BKN053 BKN076 14/11 A2948 RMK CB3SC2AC2 CB OHD SLP986 DENSITY ALT 700FT
    CYND 091923Z 29010KT 10SM TSRA SCT043CB BKN066 BKN083 14/12 A2948 RMK CB4AC2AC1 VIS S LWR SLP984 DENSITY ALT 700FT
  • CYRQ: Trois Rivieres, Que, Canada
    CYRQ 091810Z AUTO 26006G17KT 210V290 9SM -TSRA SCT012 SCT019 BKN060 BKN096 16/14 A2943 RMK LTNG DIST NE SLP970 DENSITY ALT 900FT
    CYRQ 091813Z AUTO 27008G17KT 210V300 8SM -TSRA SCT012 BKN020 BKN060 BKN096 15/14 A2943 RMK LTNG DIST NE SLP970 DENSITY ALT 900FT
  • CYSN: Saint Catharines Airport, Canada
    CYSN 091929Z 28007G15KT 230V300 12SM -TSRA FEW010 BKN018CB BKN250 16/14 A2961 RMK CF1CB5CI1 CB W MOVG E SLP030 DENSITY ALT 1000FT
    CYSN 091934Z 25011KT 4SM TSRA BR FEW010 BKN018CB OVC065 16/14 A2962 RMK CF2CB4SC2 CB W MOVG E VIS NW 1O SLP032 DENSITY ALT 900FT
    CYSN 091951Z 27013G25KT 210V300 10SM -TSRA FEW007 BKN020CB OVC087 15/14 A2961 RMK CF1CB6AC2 CF TR CB E-SE MOVG E SLP028 DENSITY ALT 800FT
    CYSN 092000Z 28007KT 250V340 10SM -TSRA FEW010 BKN020CB BKN052 OVC090 16/13 A2962 RMK CF1CB5SC2AC1 CF TR CB E-SE AND W MOVG E PRESRR SLP032 DENSITY ALT 900FT
    CYSN 092100Z 20006KT 12SM -TSRA FEW010 SCT025CB BKN046 OVC090 15/14 A2962 RMK CF1CB4SC3AC1 CF TR CB E-S MOVG E SLP034 DENSITY ALT 800FT
  • DFFD: Ouagadougou, Burkina Faso
    DFFD 092100Z 15024G35KT 4000 SQ TSRA FEW026 FEW040CB 26/23 Q1011
  • DFOO: Bobo-Dioulasso, Burkina Faso
    DFOO 091900Z 22012KT 6000 -TSRA FEW026 FEW033CB 23/21 Q1012
    DFOO 092000Z 22004KT 190V290 8000 -TSRA FEW020 SCT033CB 23/22 Q1013
  • EFJY: Jyvaskyla, Finland
    EFJY 091750Z AUTO 15007KT 120V240 9999 TSRA FEW009 BKN040 //////CB 10/09 Q0997
    EFJY 091820Z AUTO 27004KT 9999 -TSRA BKN009 //////CB 10/09 Q0997
  • ETSL: Lechfeld, Germany
    ETSL 091930Z 19005KT 8000 TSRA SCT020CB SCT040 OVC080 16/15 Q1008 BLU
  • FEFF: Bangui, Central African Republic
    FEFF 091800Z VRB04KT 6000 -TSRA BKN010 FEW033CB 22/21 Q1015 RERA WS R34
    FEFF 091830Z 35004KT 6000 -TSRA BKN010 FEW033CB 22/21 Q1015 RERA WS R34
    FEFF 091900Z VRB02KT 8000 -TSRA BKN010 FEW033CB 22/21 Q1015 RERA
    FEFF 092000Z VRB02KT 8000 -TSRA BKN010 FEW033CB 22/21 Q1016 RERA
    FEFF 092030Z VRB04KT 8000 -TSRA BKN010 FEW033CB 22/21 Q1016 RERA
    FEFF 092100Z VRB03KT 8000 -TSRA BKN010 FEW033CB 22/21 Q1016 RERA
  • KBTV: Burlington, Burlington Intl Arpt, VT, United States
    KBTV 091902Z 32011G19KT 2 1/2SM R15/4500VP6000FT -TSRA FEW026 SCT041 BKN050 18/12 A2949 RMK AO2 LTG DSNT W RAB1857 TSB1858 P0003 T01830117
    KBTV 091902Z COR 32011G19KT 2 1/2SM R15/4500VP6000FT -TSRA FEW026CB SCT041 BKN050 18/12 A2949 RMK AO2 RAB1857 OCNL LTGICCG TSB1858 TS W MOV SE P0003 T01830117
    KBTV 091911Z 23012G19KT 4SM -TSRA BKN024CB BKN039 BKN050 16/12 A2948 RMK AO2 RAB1857 TSB1858 OCNL LTGICCG W TSB1858 TS W MOV SE P0020 T01610117
  • KBUF: Buffalo, Greater Buffalo Intl Arpt, NY, United States
    KBUF 091820Z 23021G32KT 10SM -TSRA BKN021 BKN034CB BKN075 17/12 A2966 RMK AO2 PK WND 23032/1820 RAB1755 TSB18 OCNL LTGIC VC N TS VC N MOV E PCPN VRY LGT P0000 T01670122
  • KCNM: Carlsbad, Cavern City Air Terminal Airport, NM, United States
    KCNM 092125Z AUTO 12021G32KT 3SM -TSRA SCT080 BKN095 27/16 A2993 RMK AO2 PK WND 12037/2113 WSHFT 2100 LTG DSNT N-SE RAB25 TSB05E20B23 P0000 T02670161
  • KCVS: Cannon AFB / Clovis, NM, United States
    KCVS 092114Z 09012G18KT 6SM TSRA BKN065 SCT110 BKN160 31/15 A2998 RMK TSB2056 RAB2116 SLP085 $
  • KDLN: Dillon, Dillon Airport, MT, United States
    KDLN 092100Z AUTO VRB05KT 8SM -TSRA BKN090 OVC110 17/11 A3001 RMK AO2 LTG DSNT S AND SW TSB2054 P0000 T01670111 $
  • KEKQ: Monticello, KY, United States
    KEKQ 091808Z AUTO 30006KT 4SM -TSRA BR OVC018 21/21 A2991 RMK AO2 LTG DSNT SW-NW TSB02 P0009
    KEKQ 091825Z AUTO 27008KT 2 1/2SM TSRA BR FEW008 BKN015 OVC028 21/21 A2991 RMK AO2 LTG DSNT E TSB02 P0025
    KEKQ 091832Z AUTO 29006KT 4SM -TSRA BR FEW010 BKN019 OVC032 21/21 A2990 RMK AO2 LTG DSNT E AND S TSB02 P0031
  • KGVQ: Batavia, NY, United States
    KGVQ 091756Z AUTO 25009KT 10SM -TSRA FEW027 BKN035 OVC060 16/13 A2965 RMK AO2 TSB52RAB41 SLP040 P0000 60000 T01560133 10189 20133 56007
  • KHST: Homestead AFB, FL, United States
    KHST 091829Z 26008KT 10SM -TSRA BKN034 OVC043 27/24 A2993 RMK DZB07E17RAB23E26DZB26E27RAB27 SLP139 $
  • KIAG: Niagara Falls, NY, United States
    KIAG 091804Z 23020G31KT 1 3/4SM R28R/3000VP6000FT TSRA FEW019 BKN034 OVC050 17/13 A2964 RMK AO2 PK WND 23031/1801 LTG DSNT E RAB02 TSB03 P0008 T01670128
    KIAG 091804Z COR 23020G31KT 1 3/4SM R28R/3000VP6000FT TSRA FEW019 BKN034 OVC050 17/13 A2964 RMK AO2 PK WND 23031/1801 TS OHD MOV E LTG DSNT E RAB02 TSB03 P0008 T01670128
    KIAG 091818Z 24018G26KT 3SM R28R/5500VP6000FT -TSRA FEW019 BKN036 OVC050 17/14 A2965 RMK AO2 PK WND 23031/1801 LTG DSNT W RAB02 TSB03 TS E MVG E P0014 T01670139
    KIAG 091953Z 24009KT 8SM -TSRA FEW020 BKN043 OVC070 17/13 A2963 RMK AO2 LTG DSNT W RAB07 TSB47 SLP033 P0006 T01670133
    KIAG 091953Z COR 24009KT 8SM -TSRA FEW020 BKN043 OVC070 17/13 A2963 RMK AO2 TS OHD MOV E LTG DSNT W RAB07 TSB47 SLP033 P0006 T01670133
  • KINK: Wink, Winkler County Airport, TX, United States
    KINK 092038Z AUTO 09011KT 060V120 10SM -TSRA OVC100 36/12 A2982 RMK AO2 LTG DSNT SW AND NW RAB17 TSB38 P0000 T03560122
    KINK 092104Z AUTO 16021G27KT 10SM -TSRA FEW070 FEW090 36/09 A2982 RMK AO2 PK WND 16027/2103 WSHFT 2044 LTG DSNT W AND NW RAB2056 P0000 T03560089
    KINK 092134Z AUTO 20035G50KT 1 1/2SM -TSRA OVC120 30/11 A2983 RMK AO2 PK WND 21050/2132 WSHFT 2101 LTG DSNT W-NE RAB2056E05B16 P0000 T03000111
    KINK 092141Z AUTO 23027G55KT 1SM -TSRA FEW008 BKN120 29/11 A2984 RMK AO2 PK WND 21055/2137 WSHFT 2101 VIS 1/2V5 LTG DSNT W-NE RAB2056E05B16 P0000 T02940111
  • KK70: Key Largo, FL, United States
    KK70 091835Z AUTO 00000KT 9SM -TSRA SCT021 BKN025 OVC030 29/26 A2990 RMK AO2 LTG DSNT SE AND NW
  • KMLC: McAlester, McAlester Regional Airport, OK, United States
    KMLC 092143Z AUTO 14006KT 6SM -TSRA BR FEW050 SCT070 OVC110 22/21 A2990 RMK AO2 LTG DSNT SE-W P0070 T02170206
  • KMPV: Barre / Montpelier, Knapp State Airport, VT, United States
    KMPV 092030Z AUTO 28010G23KT 1 1/2SM TSRA BKN033 BKN042 OVC070 12/08 A2956 RMK AO2 PK WND 28026/2019 LTG DSNT SW AND W RAB12 TSB17 P0022 T01170083
  • KMSS: Massena, Massena International-Richards Field, NY, United States
    KMSS 091851Z AUTO 33012G28KT 3SM -TSRA FEW029 SCT037 BKN048 14/10 A2951 RMK AO2 PK WND 28028/1846 LTG DSNT SE RAB49 TSB45 PRESRR P0009
    KMSS 091910Z AUTO 17004KT 3SM -TSRA BR FEW026 SCT041 OVC049 12/10 A2951 RMK AO2 LTG DSNT SE P0019 T01170100
  • KPIH: Pocatello, Pocatello Regional Airport, ID, United States
    KPIH 092053Z 14013G29KT 10SM -TSRA FEW027 SCT049 BKN090 21/13 A2993 RMK AO2 PK WND 15042/2043 WSHFT 2034 RAB37 TSB29 SLP094 P0022 60022 T02110128 56013
  • KPOY: Powell, WY, United States
    KPOY 091955Z AUTO 27003KT 10SM -TSRA SCT060 BKN080 OVC090 15/03 A3013 RMK AO2 LTG DSNT N AND SW
  • KTYS: Knoxville, McGhee Tyson Airport, TN, United States
    KTYS 092121Z 21014KT 10SM -TSRA BKN024CB BKN031 OVC080 25/21 A2978 RMK AO2 LTG DSNT W-NE RAB06 TSB15 OCNL LTGIC VC W TS VC W MOV E P0000 T02500206
    KTYS 092129Z 28010KT 1 3/4SM -TSRA BKN024CB BKN031 OVC080 24/22 A2981 RMK AO2 LTG DSNT N AND NE RAB06 TSB15 PRESRR OCNL LTGIC VC W TS VC W MOV E P0001 T02440217
    KTYS 092133Z 32012KT 3/4SM -TSRA BR BKN024CB BKN031 OVC080 24/22 A2982 RMK AO2 WSHFT 2117 LTG DSNT N-E RAB06 TSB15 PRESRR OCNL LTGIC VC W TS VC W MOV E P0006 T02390217 RVRNO
    KTYS 092138Z 36012G20KT 1/4SM -TSRA FG BKN024CB BKN031 OVC080 23/22 A2981 RMK AO2 WSHFT 2122 LTG DSNT NE AND E RAB06 TSB15 OCNL LTGIC VC W TS VC W MOV E P0024 T02280217 RVRNO
  • LFLB: Chambery / Aix-Les-Bains, France
    LFLB 091830Z AUTO 06003KT 010V120 5000 1300 R18/P5000 R36/3300D TSRA BR FEW016/// SCT042/// BKN076/// //////CB 17/16 Q1006
    LFLB 091830Z AUTO 06003KT 010V120 5000 1300 R18/P5000 R36/3300D TSRA BR FEW016/// SCT042/// BKN076/// ///CB 17/16 Q1006
    LFLB 091900Z AUTO 17006KT 110V220 7000 TSRA FEW010/// SCT039/// BKN072/// //////CB 16/15 Q1007
    LFLB 091900Z AUTO 17006KT 110V220 7000 TSRA FEW010/// SCT039/// BKN072/// ///CB 16/15 Q1007
  • LFLP: Annecy/meythet, France
    LFLP 091800Z AUTO 00000KT 9999 -TSRA FEW056/// BKN100/// OVC120/// ///CB 17/16 Q1006
  • LFMV: Caumont, France
    LFMV 091800Z AUTO 00000KT 9999 -TSRA FEW060/// BKN100/// ///CB 20/18 Q1005
  • LHPR: Gyor Per, Hungary
    LHPR 091845Z AUTO 14009KT 100V180 9999 -TSRA BKN083 //////CB 21/18 Q1006 RERA
  • LIMC: Milano / Malpensa, Italy
    LIMC 091950Z 02011KT 9999 -TSRA SCT030CB BKN080 18/13 Q1006 NOSIG
  • LIME: Bergamo / Orio Al Serio, Italy
    LIME 091820Z 15007KT 6000 TSRA SCT025CB BKN040 21/19 Q1006 NOSIG
    LIME 091850Z 13006KT 6000 -TSRA SCT025CB BKN050 19/18 Q1006 RERA NOSIG
  • LIML: Milano / Linate, Italy
    LIML 091950Z VRB06KT 7000 TSRA FEW020CB SCT050 21/17 Q1005 NOSIG
  • LIPL: Brescia / Ghedi, Italy
    LIPL 092055Z 34012KT 3500 A TSRA BR SCT018CB SCT025 20/20 Q1005
    LIPL 092055Z 34012KT 3500 TSRA BR SCT018CB SCT025 20/20 Q1005 RMK OVC VIS MIN 3500 WIND THR31 34010KT WIND THR13 34011KT YLO
  • LIVE: Resia Pass, Italy
    LIVE 092055Z 00000KT 8000 TSRA FEW015 BKN025 12/11 Q1011
    LIVE 092055Z 00000KT 8000 TSRA FEW015 BKN025 12/11 Q1011 RMK OVC VIS MIN 8000
  • LIVP: Paganella, Italy
    LIVP 092055Z 19008KT 0900 -TSRA FG VV/// 09/07 Q1015
    LIVP 092055Z 19008KT 0900 -TSRA FG VV/// 09/07 Q1015 RMK MON INVIS VAL INVIS VIS MIN 0900
  • LOWS: Salzburg-Flughafen, Austria
    LOWS 091750Z 32011KT 4000 TSRA SCT026 FEW040CB BKN044 18/17 Q1007
    LOWS 091950Z 12005KT 090V160 9999 TSRA FEW038 FEW040CB OVC080 18/17 Q1007
    LOWS 092020Z VRB01KT 9999 -TSRA FEW030 FEW040CB BKN110 17/16 Q1008 RETSRA
  • LOWW: Wien / Schwechat-Flughafen, Austria
    LOWW 091750Z 10007KT 060V120 6000 TSRA FEW020 BKN038 FEW040CB 21/18 Q1005 RETSRA
  • LSGG: Geneve-Cointrin, Switzerland
    LSGG 091950Z AUTO VRB02KT 9999 -TSRA BKN022 FEW///CB 17/16 Q1008 RETS
    LSGG 092050Z AUTO 24005KT 9999 TSRA OVC015 FEW///CB 17/16 Q1008 RETS
    LSGG 092120Z AUTO 23005KT 200V270 9000 -TSRA BKN017 FEW///TCU 17/16 Q1008
  • LSZB: Bern / Belp, Switzerland
    LSZB 091820Z 16012KT 110V190 9999 3000S TSRA FEW005 SCT017CB BKN021 18/15 Q1007 RETS
    LSZB 091850Z 04005KT 340V090 5000 TSRA FEW008 SCT018CB BKN040 15/14 Q1007
  • LSZR: Saint Gallen-Altenrhein, Switzerland
    LSZR 091750Z 14003KT 060V220 7000 -TSRA FEW013 SCT022 BKN090CB 17/16 Q1007 RMK M
  • LTCB: Agri, Turkey
    LTCB 092002Z 21004KT 180V250 9999 -TSRA SCT015 FEW020CB BKN032 23/17 Q1012 RETS
  • LTCD: Erzincan, Turkey
    LTCD 091750Z 25006KT 230V290 9999 -TSRA FEW030CB SCT040 BKN080 15/13 Q1015
  • LTCF: Kars, Turkey
    LTCF 091750Z 11011KT 9999 -TSRA FEW025CB SCT040 BKN080 12/10 Q1016 NOSIG
    LTCF 091750Z 11011KT 9999 -TSRA FEW025CB SCT040 BKN080 12/10 Q1016 NOSIG RMK RWY24 11009KT
  • LTCR: Mardin Airport, Turkey
    LTCR 091931Z 24014G28KT 190V300 9999 -TSRA FEW025CB SCT040 31/09 Q1007 RETS
    LTCR 091935Z 25017G31KT 190V300 9000 -TSRA FEW025CB BKN040 29/11 Q1008
    LTCR 091950Z 26014G25KT 230V300 7000 -TSRA FEW025CB BKN040 28/10 Q1009 RETS
  • LTCT: Igdir, Turkey
    LTCT 091914Z 19007KT 160V220 9999 -TSRA FEW035CB SCT040 BKN080 21/15 Q1012
  • LZIB: Bratislava Ivanka, Slovakia
    LZIB 091830Z 05006KT 9999 -TSRA SCT035CB BKN040 23/18 Q1006 NOSIG
    LZIB 091900Z 16018G32KT 120V220 6000 1600SE TSRA FEW015 BKN025CB 19/18 Q1007 RETSRAGR NOSIG
  • MMQT: Queretaro, Qro., Mexico
    MMQT 092057Z RTD 36009KT 4SM -TSRA BKN020CB OVC250 23/14 A3021 RMK 60055 8/903 TSB20 -RAB35
  • MNJU: Juigalpa, Nicaragua
    MNJU 092100Z 09004KT 8000 TSRA BKN020CB 26/24 Q1009 2AC080 CB/ALRD
  • MNRS: Rivas, Nicaragua
    MNRS 092000Z 00000KT 5000 TSRA SCT010CBCB SCT013 28/26 Q1010 CB/ALRD
  • MPDA: David, Panama
    MPDA 092100Z 16004KT 4000NE TSRA SCT012CB BKN080 29/26 Q1010
  • MROC: Juan Santamaria, Costa Rica
    MROC 091931Z 26014KT 6000 -TSRA BKN005CB 25/23 A3005 NOSIG
    MROC 092000Z 25012KT 7000 -TSRA BKN008CB 24/22 A3005 NOSIG
    MROC 092028Z 25008KT 3000 -TSRA OVC005CB 23/22 A3005 NOSIG
    MROC 092100Z 27005KT 240V300 4000 -TSRA BKN005CB 23/22 A3004 NOSIG
  • MRPV: Tobias Bolanos International, Costa Rica
    MRPV 091933Z 28013KT 9999 TSRA SCT010CB BKN200 24/21 A3004 NOSIG
    MRPV 092000Z 30012KT 9999 TSRA SCT010CB BKN020 23/21 A3004 NOSIG
    MRPV 092021Z 29010KT 5000 TSRA BKN010CB 23/23 A3004 NOSIG
    MRPV 092100Z 32006KT 4000 -TSRA BR BKN010CB 22/22 A3003 NOSIG
  • MUCM: Camaguey Aeropuerto, Cuba
    MUCM 092050Z VRB03KT 6000 -TSRA SCT018CB BKN020 26/23 Q1015
  • MUSC: Santa Clara, Cuba
    MUSC 091750Z 18009KT 150V210 1000 R08/P2000D -TSRA OVC015CB 24/24 Q1015
    MUSC 091801Z 16007KT 130V190 3000 -TSRA OVC018CB 25/24 Q1015 RMK CB AT II AND IV QUAD
  • OIHH: Hamadan, Iran
    OIHH 092100Z 27010KT 9000 TSRA FEW035CB SCT040 20/04 Q1020 A3014
  • SBBE: Belem Aeroporto, Brazil
    SBBE 092038Z 06011KT 2000 -TSRA SCT013 BKN020 FEW025CB BKN100 26/25 Q1011
    SBBE 092100Z 06010KT 2000 -TSRA BKN008 BKN020 FEW025CB BKN070 26/25 Q1011
    SBBE 092117Z 13014G24KT 1100 -TSRA BKN007 BKN016 FEW025CB BKN070 25/23 Q1012 RETS
  • SBSL: Sao Luiz Aeroporto, Brazil
    SBSL 091800Z 14015G30KT 3000 1000SW TSRA SCT003 BKN012 FEW020CB BKN100 26/24 Q1012
    SBSL 091900Z 02002KT 5000 -TSRA FEW005 SCT010 FEW020CB BKN100 24/24 Q1012 RERA
  • SBTT: Tabatinga, Brazil
    SBTT 092000Z 03008KT 9999 -TSRA SCT025 FEW030CB 25/23 Q1012
  • SKLT: Leticia / Vasquez Cobo, Colombia
    SKLT 092000Z 28005KT 8000 -TSRA SCT008CB BKN017 24/24 Q1010 RMK CB/W/SW
    SKLT 092010Z 36006KT 8000 -TSRA FEW010CB SCT017 24/24 Q1010 RMK CB VCSH/W
  • SKMD: Medellin / Olaya Herrera, Colombia
    SKMD 091910Z 16012KT 120V190 9999 -TSRA SCT035CB BKN060 22/18 Q1019 RMK CB/NE/SE
    SKMD 092000Z 33005KT 300V360 9999 8000N -TSRA SCT030CB BKN060 20/20 Q1020 RMK CB/SW/NW
    SKMD 092100Z 18005KT 080V240 9999 -TSRA SCT030CB BKN060 21/21 Q1020 RMK CB/S/SW
  • SKSP: San Andres Isla / Sesquicentenario, Colombia
    SKSP 091836Z 11008KT 050V160 8000 2000E -TSRA BKN012CB 31/26 Q1012 RMK CB/NE/E/SE
    SKSP 091900Z 09007KT 060V150 4000 -TSRA SCT012CB 29/25 Q1011 RMK CB/E/SE/S
    SKSP 092000Z 16007KT 110V210 9999 -TSRA SCT012CB 26/25 Q1011 RMK CB/SW
  • SMJP: Johan A. Pengel, Suriname
    SMJP 092000Z 11013KT 6000 -TSRA SCT006 FEW015CB SCT020 27/25 Q1011 NOSIG
  • SMZO: Paramaribo, Suriname
    SMZO 092100Z 14008KT 9999 -TSRA SCT008 FEW012CB BKN020 29/26 Q1011 NOSIG
  • SYCJ: Georgetown/Cheddi Jagan Arpt, Guyana
    SYCJ 091832Z 29008KT 8000 -TSRA FEW016CB SCT018 BKN036 28/26 Q1011 NOSIG RMK CB S-NW
    SYCJ 091840Z 29008KT 5000 TSRA FEW016CB SCT018 BKN036 28/26 Q1011 NOSIG RMK CB S-NW
    SYCJ 091900Z 22008KT 8000 -TSRA FEW014CB SCT016 BKN034 25/25 Q1010 RETSRA NOSIG RMK CB S-NW
    SYCJ 092000Z VRB02KT 9000 -TSRA SCT014CB SCT015 BKN034 25/25 Q1010 NOSIG RMK CB-ALQDS
  • UASP: Pavlodar, Kazakhstan
    UASP 091900Z 09007MPS 8000 -TSRA BKN040CB 20/17 Q1006 NOSIG RMK QFE744/0993
  • UBBN: Nakchivan, Azerbaijan
    UBBN 091830Z 10012KT 9999 -TSRA BKN030CB OVC080 22/11 Q1010 NOSIG RMK QFE683
  • UDSG: Shirak, Armenia
    UDSG 091830Z 31009KT 9000 -TSRA BKN049CB 15/11 Q1016 NOSIG
    UDSG 091900Z 03012KT 8000 -TSRA BKN049CB 14/12 Q1016 NOSIG
  • UDYZ: Zvartnots, Armenia
    UDYZ 091930Z 11005KT 9999 -TSRA BKN043CB 20/13 Q1011 NOSIG
    UDYZ 092030Z 13004KT 070V160 9999 -TSRA BKN043CB 19/15 Q1012 NOSIG
    UDYZ 092130Z VRB01KT 9999 -TSRA BKN043CB 18/15 Q1012
  • URMG: Grozny, Russia
    URMG 091930Z 27007MPS 9000 -TSRA BKN026CB 20/18 Q1011 R26/090070
    URMG 092000Z 33004MPS 9000 -TSRA BKN049CB 20/18 Q1011 R26/290250
    URMG 092030Z VRB01MPS 5000 -TSRA BKN041CB 20/18 Q1011 R26/290250
  • VABB: Bombay / Santacruz, India
    VABB 091800Z 23010KT 1500 R27/2000 TSRA SCT010 SCT015 FEW030CB OVC080 27/27 Q1007
    VABB 091900Z 08010KT 0900 R27/1000 TSRA SCT010 SCT015 FEW030CB OVC080 25/25 Q1006
    VABB 091930Z 09010KT 2200 -TSRA SCT012 SCT015 FEW030CB OVC080 25/25 Q1006
    VABB 092000Z 10009KT 2100 -TSRA SCT012 SCT015 FEW030CB OVC080 25/25 Q1006
    VABB 092030Z 09004KT 2100 -TSRA FEW012 SCT018 FEW030CB OVC080 25/25 Q1006
  • VOKN: Kannur Intl, India
    VOKN 091930Z 13005KT 2000 -TSRA FEW002 SCT012 FEW025CB OVC080 24/24 Q1009 NOSIG
    VOKN 092000Z 13006KT 2500 -TSRA FEW003 SCT012 FEW025CB BKN080 24/24 Q1008 NOSIG
  • VVCI: Cat Bi, Viet Nam
    VVCI 092130Z 02006KT 7000 TSRA FEW008 BKN015 SCT028CB 27/26 Q1005 NOSIG
  • WAQQ: Tarakan/Juwata, Indonesia
    WAQQ 092130Z 09003KT 1000 TSRA FEW014CB SCT015 25/25 Q1011
  • WBSB: Brunei Airport, Brunei
    WBSB 091900Z 03005KT 9999 -TSRA SCT015 SCT016CB BKN140 26/26 Q1011 NOSIG
    WBSB 091930Z 10003KT 9999 -TSRA SCT015 SCT016CB BKN140 25/25 Q1011 NOSIG
    WBSB 092000Z 05007KT 9999 -TSRA SCT015 FEW016CB BKN140 25/25 Q1012 NOSIG
    WBSB 092000Z 05007KT 9999 -TSRA SCT015 SCT016CB BKN140 25/25 Q1012 NOSIG
    WBSB 092030Z 11005KT 8000 -TSRA SCT014 FEW015CB BKN140 24/24 Q1011 NOSIG
    WBSB 092100Z 11002KT 8000 -TSRA SCT014 FEW015CB BKN150 25/25 Q1011 NOSIG
    WBSB 092130Z 12003KT 8000 -TSRA SCT014 FEW015CB BKN150 25/25 Q1012 NOSIG
  • WMKB: Buttersworth, Malaysia
    WMKB 092000Z VRB02KT 7000 -TSRA FEW010 FEW017CB SCT023 24/22 Q1010 NOSIG
  • WMKD: Kuantan, Malaysia
    WMKD 091800Z 00000KT 8000 -TSRA FEW003 FEW016CB SCT024 25/24 Q1011 NOSIG
    WMKD 091900Z VRB02KT 6000 -TSRA FEW003 FEW016CB SCT024 25/24 Q1011 NOSIG
  • ZJSY: Sanya/Fenghuang, China
    ZJSY 091800Z VRB01MPS 9000 -TSRA FEW013 FEW025CB BKN040 27/25 Q1008
    ZJSY 091900Z 07004MPS 9999 -TSRA FEW009 FEW025CB SCT050 27/26 Q1007 NOSIG


0 stations reporting blizzard conditions

0 stations reporting near-blizzard conditions


1 station reporting visibility of zero

  • KMWN: Mount Washington, NH, United States
    KMWN 091747Z 27023G26KT 0SM FG VV000 03/03 RMK SHRAE10 60020 10032 20018
    KMWN 091852Z 28034G39KT 0SM FG VV000 03/03 RMK
    KMWN 092051Z 28031G42KT 0SM FG VV000 04/04 RMK
10 stations reporting visibility 1/8 mile or less, but not zero

  • KACY: Atlantic City, Atlantic City Intl Arpt, NJ, United States [<1/4mile]
    KACY 092001Z 27013KT M1/4SM HZ FEW060 28/12 A2960 RMK AO2 T02830122 $
  • KAVX: Avalon, Catalina Airport, CA, United States [<1/4mile]
    KAVX 091859Z AUTO 28003KT M1/4SM FG VV002 13/13 A3001 RMK AO2 T01330133
    KAVX 091951Z AUTO 25004KT M1/4SM FG VV001 13/13 A3001 RMK AO2 SLP156 T01330133
    KAVX 092051Z AUTO 27006KT M1/4SM FG VV001 13/13 A3001 RMK AO2 SLP157 T01330133 51005
  • KMWN: Mount Washington, NH, United States [1/16mile]
    KMWN 091952Z 28038G46KT 1/16SM FG VV000 04/04 RMK
  • RJOA: Hiroshima Airport, Japan [100meters]
    RJOA 092135Z AUTO 14003KT 0100 R10/0150VP2000D FG SCT001 17/16 Q1010 RMK A2984
    RJOA 092137Z AUTO 14003KT 0100 R10/0150VP2000D FG BKN001 17/16 Q1010 RMK A2985
  • UHWW: Vladivostok, Russia [150meters]
    UHWW 091830Z 08002MPS 0200 0150E R25L/0550N FG VV001 12/12 Q1006 R25L/190065 NOSIG RMK QBB050 MT OBSC QFE753
    UHWW 091930Z 09002MPS 0200 0150E R25L/0400N FG VV001 12/12 Q1006 R25L/190065 NOSIG RMK QBB040 MT OBSC QFE753
    UHWW 092000Z VRB01MPS 0150 R25L/0200N FG VV001 12/12 Q1006 R25L/190065 NOSIG RMK QBB040 MT OBSC QFE754
    UHWW 092030Z VRB01MPS 0200 R25L/0225N FG VV001 12/12 Q1006 R25L/190065 NOSIG RMK QBB040 MT OBSC QFE754
    UHWW 092100Z 08002MPS 0200 R25L/0250N FG VV001 12/12 Q1006 R25L/19//70 NOSIG RMK QBB040 MT OBSC QFE754
    UHWW 092130Z 06002MPS 0200 R25L/0275N FG VV001 12/12 Q1006 R25L/0///70 NOSIG RMK QBB040 MT OBSC QFE754
  • UIBB: Bratsk / Irkutsk, Russia [150meters]
    UIBB 091800Z AUTO 28003MPS 0150 // ///000/// 14/14 Q1003 RMK QBB010 QFE710/0946
  • ULOO: Pskov, Russia [200meters]
    ULOO 092100Z 13001MPS 0200 0100NE R19/0400D FG NSC 09/09 Q1005 NOSIG RMK QFE750
  • UOOO: Alykel, Russia [100meters]
    UOOO 091900Z 31004MPS 0150 R01/0200N FZFG SCT001 M01/M01 Q1012 R01/12//60 NOSIG RMK QBB040 QFE744/0993
    UOOO 092000Z 31004MPS 0100 R01/0100N FZFG VV001 M01/M01 Q1013 R01/12//60 NOSIG RMK QBB040 QFE745/0993
    UOOO 092100Z 32004MPS 0100 0050S R01/0100N FZFG VV001 M02/M02 Q1013 R01/12//60 NOSIG RMK QBB040 QFE745/0994
  • YSDU: Dubbo, Australia [100meters]
    YSDU 091850Z AUTO 11003KT 0150 FG BKN001 02/01 Q1022 RF00.0/000.0
    YSDU 091850Z AUTO 11003KT 0150 FG BKN001 02/01 Q1022 RF00/0/000/0
    YSDU 091900Z AUTO 11001KT 0100 FG BKN001 02/02 Q1022 RF00.0/000.0
    YSDU 091900Z AUTO 11001KT 0100 FG BKN001 02/02 Q1022 RF00/0/000/0
    YSDU 091930Z AUTO 00000KT 0200 FG BKN001 02/01 Q1022 RF00.0/000.2
    YSDU 091930Z AUTO 00000KT 0200 FG BKN001 02/01 Q1022 RF00/0/000/2
  • YSTW: Tamworth Airport, Australia [150meters]
    YSTW 092000Z AUTO 21003KT 0200 FG OVC001 02/02 Q1022 RF00.0/000.0
    YSTW 092100Z AUTO 09004KT 0150 FG OVC001 03/03 Q1022 RF00.0/000.0
    YSTW 092130Z AUTO 15003KT 0150 FG OVC001 04/04 Q1023 RF00.0/000.2
1 station reporting visibility 75 miles or greater

  • KEDW: Edwards AFB, CA, United States [90miles]
    KEDW 091755Z 22012G19KT 90SM FEW180 SCT250 30/06 A2986 RMK AO2A SLP087 T03000059 10300 20166 58001
    KEDW 091855Z 23013G18KT 90SM FEW170 SCT250 31/05 A2986 RMK AO2A SLP087 T03060051
    KEDW 091955Z 24012KT 90SM FEW170 SCT250 32/03 A2986 RMK AO2A SLP087 T03240033
    KEDW 092055Z 24013KT 90SM FEW190 SCT250 32/02 A2986 RMK AO2A SLP087 T03210022 58001
    KEDW 092126Z 23015G21KT 90SM FEW190 SCT250 33/01 A2985 RMK AO2A
2 stations reporting visibility 50-74 miles

  • CYQL: Lethbridge, Alta., Canada [60miles]
    CYQL 091800Z 14010KT 100V160 60SM FEW050 FEW150 BKN270 16/04 A3011 RMK CU1AC1CI4 SLP208 DENSITY ALT 3700FT
    CYQL 091900Z 12010KT 060V140 60SM FEW050 FEW150 BKN270 17/05 A3009 RMK CU1AC2CS4 CU TR SLP197 DENSITY ALT 3800FT
    CYQL 092000Z 15008G15KT 110V190 60SM FEW060 FEW150 BKN270 19/04 A3006 RMK CU1AC1CS5 CU TR SLP185 DENSITY ALT 4100FT
    CYQL 092100Z 14009G16KT 110V180 60SM FEW060 SCT150 BKN270 20/06 A3004 RMK CU1AC2CI4 SLP178 DENSITY ALT 4200FT
  • CYXJ: Fort St John, B. C., Canada [60miles]
    CYXJ 092000Z VRB03KT 60SM FEW014 OVC030 10/07 A3006 RMK SC2SC6 SLP203
    CYXJ 092100Z 00000KT 60SM FEW014 OVC045 11/06 A3005 RMK SC2SC6 SLP197


0 stations reporting aurora

0 stations reporting solar/lunar eclipse


0 stations reporting inside a hurricane eye

0 stations reporting aircraft mishap

14 stations reporting bird hazard on the runway

  • SPCL: Pucallpa, Peru
    SPCL 091800Z 35005KT 9999 BKN022 32/22 Q1014 RMK BIRD HAZARD RWY 02/20 PP000
    SPCL 091900Z 05005KT 9999 BKN022 32/22 Q1013 RMK BIRD HAZARD RWY 02/20 PP000
    SPCL 092000Z 06005KT 9999 BKN022 32/22 Q1011 RMK BIRD HAZARD RWY 02/20 PP000
    SPCL 092100Z 02003KT 9999 BKN020 32/21 Q1011 RMK BIRD HAZARD RWY 02/20 PP000
  • SPHI: Chiclayo, Peru
    SPHI 091800Z 20009KT 150V240 9999 FEW030 24/15 Q1015 RMK BIRD HAZARD RWY 19/01 PP000
    SPHI 091900Z 20011KT 160V230 CAVOK 24/15 Q1015 RMK BIRD HAZARD RWY 19/01 PP000
    SPHI 092000Z 19012KT 170V230 CAVOK 24/15 Q1014 RMK BIRD HAZARD RWY 19/01 PP000
    SPHI 092100Z 18014KT CAVOK 22/15 Q1013 RMK BIRD HAZARD RWY 19/01 PP000
  • SPHO: Ayacucho, Peru
    SPHO 091800Z VRB02KT CAVOK 21/M07 Q1029 RMK BIRD HAZARD RWY 02/20 PP000
    SPHO 091900Z VRB02KT CAVOK 22/M14 Q1027 RMK BIRD HAZARD RWY 02/20 PP000
    SPHO 092000Z VRB04KT CAVOK 22/M15 Q1026 RMK BIRD HAZARD RWY 02/20 PP000
    SPHO 092100Z VRB04KT CAVOK 22/M12 Q1026 RMK BIRD HAZARD RWY 02/20 PP000
  • SPHY: Andahuayla, Peru
    SPHY 091800Z 33006KT CAVOK 17/06 Q1034 RMK BIRD HAZARD RWY03/21 PP000
    SPHY 091900Z 05010KT CAVOK 18/06 Q1034 RMK BIRD HAZARD RWY03/21 PP000
  • SPJC: Lima/J Chavez, Peru
    SPJC 092100Z 18007KT 150V210 9999 SCT010 OVC020 19/13 Q1013 NOSIG RMK BIRD HAZARD RWY 16 PP000
  • SPJJ: Jauja, Peru
    SPJJ 091800Z 18003KT CAVOK 18/M03 Q1033 RMK BIRD HAZARD RWY13/31 PP000
    SPJJ 091900Z 32003KT CAVOK 19/M02 Q1032 RMK BIRD HAZARD RWY13/31 PP000
    SPJJ 092000Z 15009KT CAVOK 21/00 Q1030 RMK BIRD HAZARD RWY13/31 PP000
    SPJJ 092100Z 05009KT CAVOK 20/M00 Q1030 RMK BIRD HAZARD RWY13/31 PP000
  • SPJL: Juliaca, Peru
    SPJL 091800Z VRB03KT CAVOK 15/M13 Q1036 RMK BIRD HAZARD RWY 12/30 PP000
    SPJL 091900Z VRB03KT CAVOK 16/M13 Q1035 RMK BIRD HAZARD RWY 12/30 PP000
    SPJL 092000Z 05005KT 010V150 CAVOK 17/M14 Q1034 RMK BIRD HAZARD RWY 12/30 PP000
    SPJL 092100Z 08003KT 020V170 CAVOK 17/M14 Q1033 RMK BIRD HAZARD RWY 12/30 PP000
  • SPME: Tumbes, Peru
    SPME 091800Z 35009KT 9999 SCT015 26/21 Q1013 RMK BIRD HAZARD RWY 32/14 PP000
    SPME 091900Z 34009KT 9999 SCT025 26/21 Q1012 RMK BIRD HAZARD RWY 32/14 PP000
    SPME 092000Z 36008KT 9999 SCT025 26/21 Q1011 RMK BIRD HAZARD RWY 32/14 PP000
    SPME 092100Z 36007KT 9999 FEW015 SCT050 25/21 Q1011 RMK BIRD HAZARD RWY 32/14 PP000
  • SPMS: Yurimaguas, Peru
    SPMS 091800Z 05004KT 9999 FEW020 SCT100 31/24 Q1014 RMK BIRD HAZARD RWY 09/27 PP000
    SPMS 091900Z 04005KT 9999 FEW020 BKN100 31/24 Q1013 RMK BIRD HAZARD RWY 09/27 PP000
    SPMS 092000Z 03003KT 9999 FEW020 BKN100 33/24 Q1012 RMK BIRD HAZARD RWY 09/27 PP000
    SPMS 092100Z 01004KT 9999 FEW020 SCT100 28/24 Q1011 RMK BIRD HAZARD RWY 09/27 PP000
  • SPSO: Pisco, Peru
    SPSO 091800Z 28006KT 250V310 6000 SCT006 OVC020 18/16 Q1016 RMK BR BIRD HAZARD RWY 22/04 PP000
    SPSO 091900Z 29006KT 7000 OVC023 18/16 Q1015 RMK BR BIRD HAZARD RWY 22/04 PP000
    SPSO 092000Z 30005KT 8000 OVC022 18/16 Q1014 RMK BR BIRD HAZARD RWY 22/04 PP000
    SPSO 092100Z 26006KT 8000 OVC019 18/16 Q1014 RMK BR BIRD HAZARD RWY 22/04 PP000
  • SPTU: Puerto Maldonado, Peru
    SPTU 091800Z 31006KT 250V360 9999 SCT025 31/21 Q1012 RMK BIRD HAZARD RWY 01/19 PP000
    SPTU 091900Z 30007KT 250V340 9999 SCT025 32/22 Q1011 RMK BIRD HAZARD RWY 01/19 PP000
    SPTU 092000Z 35006KT 9999 FEW025 32/21 Q1010 RMK BIRD HAZARD RWY 01/19 PP000
    SPTU 092100Z 30004KT 260V340 CAVOK 32/22 Q1010 RMK BIRD HAZARD RWY 01/19 PP000
  • SPUR: Piura, Peru
    SPUR 091800Z 16006KT 9999 BKN015 24/16 Q1016 RMK BIRD HAZARD RWY 19/01 PP000
    SPUR 091900Z 15005KT CAVOK 25/16 Q1014 RMK BIRD HAZARD RWY 19/01 PP000
    SPUR 092000Z 15005KT CAVOK 26/16 Q1013 RMK BIRD HAZARD RWY 19/01 PP000
    SPUR 092100Z 20010KT CAVOK 27/16 Q1012 RMK BIRD HAZARD RWY 19/01 PP000
  • SPYL: Talara, Peru
    SPYL 091800Z /////KT CAVOK 25/18 Q1014 RMK BIRD HAZARD RWY 17/35 PP000
    SPYL 091900Z /////KT CAVOK 26/18 Q1013 RMK BIRD HAZARD RWY 17/35 PP000
    SPYL 092000Z /////KT CAVOK 25/18 Q1012 RMK BIRD HAZARD RWY 17/35 PP000
    SPYL 092100Z /////KT CAVOK 24/17 Q1012 RMK BIRD HAZARD RWY 17/35 PP000
  • SPZO: Cuzco, Peru
    SPZO 091800Z VRB02KT 9999 NSC 20/M13 Q1031 NOSIG RMK BIRD HAZARD RWY 10/28 PP000
    SPZO 091830Z VRB04KT 9999 NSC 21/M14 Q1030 NOSIG RMK BIRD HAZARD RWY 10/28
    SPZO 091900Z VRB03KT 9999 NSC 22/M14 Q1030 NOSIG RMK BIRD HAZARD RWY 10/28 PP000
    SPZO 091930Z VRB04KT 9999 NSC 22/M13 Q1029 NOSIG RMK BIRD HAZARD RWY 10/28
    SPZO 092000Z 29004KT 230V350 9999 NSC 21/M13 Q1029 NOSIG RMK BIRD HAZARD RWY 10/28 PP000
    SPZO 092030Z VRB03KT 9999 NSC 22/M13 Q1029 NOSIG RMK BIRD HAZARD RWY 10/28
    SPZO 092100Z 05005KT 010V100 9999 NSC 21/M12 Q1029 NOSIG RMK BIRD HAZARD RWY 10/28 PP000
    SPZO 092130Z 35007KT 320V040 9999 NSC 20/M11 Q1029 NOSIG RMK BIRD HAZARD RWY 10/28
0 stations reporting volcanic ash

1 station reporting ice crystals/diamond dust

  • NZSP: Amundsen-Scott Stn, Antarctica
    NZSP 091750Z 02009KT 9999 IC OVC030 M56/ A2848 RMK CLN AIR 01007KT ALL WNDS GRID
0 stations reporting blowing spray

8 stations reporting dust or duststorm

  • FTTJ: Ndjamena, Chad
    FTTJ 091800Z 18008KT 4000 DU FEW050CB 36/19 Q1005 NOSIG
  • GQPA: Atar, Mauritania
    GQPA 091800Z 04006KT 6000 DU NSC 43/12 Q1010
  • KLBB: Lubbock, Lubbock Intl Arpt, TX, United States
    KLBB 092124Z 03031G42KT 2SM R17R/3500VP6000FT TS BLDU SCT065CB BKN090 BKN110 28/15 A2994 RMK AO2 PK WND 03042/2123 WSHFT 2110 LTG DSNT N AND NE TSB14 OCNL LTGICCG NW-NE TS NW-NE MOV W T02780150 $
    KLBB 092134Z 03021G44KT 6SM TS BLDU BKN070CB BKN095 BKN140 25/16 A2995 RMK AO2 PK WND 03044/2128 WSHFT 2110 LTG DSNT NE TSB14 OCNL LTGICCG NW-NE TS NW-NE MOV W T02500156 $
  • KROW: Roswell, NM, United States
    KROW 092134Z 06023G32KT 3SM BLDU FEW007 FEW075 28/15 A2992 RMK AO2 PK WND 05032/2131 WSHFT 2120 LTG DSNT N-E T02830150
  • MMPE: Puerto Penasco International, Mexico
    MMPE 091840Z 15021KT 10SM SCT200 32/08 A2983 RMK 8/001 BLDU HZY
  • OINE: Kalaleh, Iran
    OINE 091800Z 22006KT 4000 DU NSC 28/15 Q1010
  • OINK: Gonbad Ghabus, Iran
    OINK 091800Z 24004KT 5000 DU NSC 30/11 Q1008 A2978
  • ORNI: Al-ashraf, Iraq
    ORNI 091800Z 06006KT 5000 DU FEW040 40/07 Q0997
    ORNI 091900Z 00000KT 5000 DU FEW040 39/06 Q0998
    ORNI 092000Z 10004KT 5000 DU FEW040 39/08 Q0998
3 stations reporting sand or sandstorm

  • DAUH: Hassi-Messaoud, Algeria
    DAUH 091900Z 01005KT 1200 SA SCT033 FEW040CB SCT100 41/06 Q1006
    DAUH 092000Z 16003KT 060V210 3000 SA FEW033 FEW040TCU SCT100 39/06 Q1007
    DAUH 092100Z 12004KT 090V170 3000 SA FEW040TCU SCT100 39/04 Q1007
  • DAUO: El Oued, Algeria
    DAUO 091800Z 20011KT 4000 SA FEW040 SCT200 41/04 Q1004
    DAUO 091900Z 20010KT 4000 SA FEW040 SCT200 40/03 Q1003
    DAUO 092000Z 34010KT 4000 SA FEW040 SCT200 36/06 Q1005
    DAUO 092100Z 34005KT 4000 SA FEW040 SCT200 35/06 Q1006
  • DTTZ: Tozeur, Tunisia
    DTTZ 091900Z 19016KT 150V220 4000 SA SCT033 41/02 Q1005
1 station reporting well-developed dust/sand whirls

  • MMSM: Santa Lucia Air Force Base, Mexico
    MMSM 091946Z 34010KT 270V040 8SM BKN020TCU 27/09 A3024 RMK 8/200 HZY PO
11 stations reporting smoke

  • CYCQ: Chetwynd Airport, Canada
    CYCQ 091800Z 06006KT 320V080 15SM BKN035 OVC090 10/04 A3008 RMK SC6AC2 FU DIST MT W SLP206
    CYCQ 091900Z 06005KT 320V120 15SM OVC030 11/05 A3007 RMK SC8 FU DIST MT W SLP200
    CYCQ 092000Z 07004KT 060V150 15SM OVC035 11/04 A3005 RMK SC8 CVCTV CLD EMBD FU DIST MT W SLP194
    CYCQ 092100Z 14003KT 35SM OVC035 13/04 A3003 RMK SC8 FU DIST MT W CVCTV CLD EMBD SLP188
  • KTLH: Tallahassee, FL, United States
    KTLH 091753Z VRB03KT 10SM FEW000 FEW250 35/15 A2990 RMK AO2 SLP122 FU FEW000 T03500150 10356 20222 58016
    KTLH 091853Z 32008KT 10SM FEW000 FEW250 36/15 A2987 RMK AO2 SLP115 FU FEW000 T03610150
    KTLH 091953Z VRB05KT 10SM FEW000 FEW250 36/14 A2986 RMK AO2 SLP109 FU FEW000 T03610139
    KTLH 092053Z 10SM FEW000 FEW250 37/14 A2983 RMK AO2 SLP101 FU FEW000 T03720144 58021
  • MMCB: Cuernavaca, Mor., Mexico
    MMCB 091745Z RTD 16003KT 3SM FU HZ FEW250 30/14 A3006 RMK 8/001 AC
  • MMUN: Cancun Intl Arpt, Mexico
    MMUN 091847Z 14010KT 7SM FEW015 33/26 A2985 RMK 8/100 FU NW MDT CU
  • MMVA: Villahermosa, Mexico
    MMVA 091844Z 30009KT 2 1/2SM FU HZ SCT070 35/25 A2982 RMK 8/010
    MMVA 092045Z 04012KT 3SM FU SCT018TCU SCT070 36/27 A2977 RMK SLP080 57023 973 8/220
  • MMVR: Veracruz / Las Bajadas / General Heriberto Jara, Mexico
    MMVR 091950Z 06010KT 3SM HZ SCT250 34/24 A2978 RMK 8/001 FU ARND
    MMVR 092041Z 06012KT 4SM FEW250 34/24 A2976 RMK SLP069 57017 979 8/001 HZY FU ARND
  • PABI: Delta Junction/Ft Greely, AK, United States
    PABI 091753Z 18014G24KT 10SM SCT140 OVC200 21/M03 A2978 RMK AO2 PK WND 18027/1737 SLP078 CIG THN LGT FU ALQDS ACSL DSNT NE-SE T02111028 10211 20106 58002
    PABI 091853Z 19012G22KT 10SM SCT140 OVC200 22/M03 A2977 RMK AO2 PK WND 19026/1805 SLP074 CIG THN FU DSNT W-E ACSL DSNT NW-N T02221028
    PABI 091953Z 19011KT 150V220 10SM SCT140 OVC200 23/M02 A2977 RMK AO2 SLP074 CIG THN FU DSNT W-E ACSL DSNT NW-N T02281022
    PABI 092053Z 00000KT 10SM SCT150 OVC200 23/M02 A2976 RMK AO2 SLP073 CIG THN FU DSNT W-E ACSL DSNT NW T02281022 56006
  • PABT: Bettles, Bettles Airport, AK, United States
    PABT 091753Z 06008G19KT 010V140 10SM FEW080 SCT120 BKN200 21/07 RMK ALT2981 SLP097 SCT120 IS FU T02110067 10211 20144 58010
  • PAEI: Fairbanks, Eielson AFB, AK, United States
    PAEI 091755Z 00000KT 5SM FU BKN150 BKN170 20/06 A2970
    PAEI 091755Z 00000KT 5SM FU BKN150 BKN170 20/06 A2970 RMK AO2A SLP058 T01960063 10196 20115 58003 $
    PAEI 091815Z 00000KT 7SM FU FEW140 SCT170 21/04 A2970
    PAEI 091815Z 00000KT 7SM FU FEW140 SCT170 21/04 A2970 RMK AO2A SLP058 $
  • PAOR: Northway, Northway Airport, AK, United States
    PAOR 091753Z 00000KT 3SM HZ FU SCT120 20/01 A2979
    PAOR 091753Z 00000KT 3SM HZ FU SCT120 20/01 A2979 RMK AO2 SLP078 FU ALQDS 6//// T02000006 10200 20094 58003 PNO $
    PAOR 091853Z VRB03KT 4SM HZ FU SCT120 21/00 A2978
    PAOR 091853Z VRB03KT 4SM HZ FU SCT120 21/00 A2978 RMK AO2 SLP075 FU ALQDS T02110000 PNO $
    PAOR 091855Z 23005KT 1 1/2SM HZ FU CLR 21/00 A2978
    PAOR 091855Z 23005KT 1 1/2SM HZ FU CLR 21/00 A2978 RMK AO2 T02110000 PNO $
    PAOR 091902Z 00000KT 3SM HZ FU CLR 21/00 A2978
    PAOR 091902Z 00000KT 3SM HZ FU CLR 21/00 A2978 RMK AO2 FU ALQDS T02060000 PNO $
    PAOR 091953Z 00000KT 3SM HZ FU CLR 23/00 A2978
    PAOR 091953Z 00000KT 3SM HZ FU CLR 23/00 A2978 RMK AO2 SLP074 FU ALQDS T02280000 PNO $
    PAOR 092053Z 00000KT 6SM HZ FU BKN120 23/01 A2977
    PAOR 092053Z 00000KT 6SM HZ FU BKN120 23/01 A2977 RMK AO2 SLP072 6//// T02280006 57007 PNO $
  • SBCR: Corumba, Brazil
    SBCR 092100Z 04006KT 5000 FU HZ NSC 31/16 Q1010


Stations falling into 5 or more extreme categories

Stations falling into 4 extreme categories

Stations falling into 3 extreme categories

Stations falling into 2 extreme categories

  • CYND: Gatineau Airport, Canada
        Precipitation Type/Intensity, Thunderstorm
  • DAUH: Hassi-Messaoud, Algeria
        Temperature, Sand/Sandstorm
  • DAUO: El Oued, Algeria
        Temperature, Sand/Sandstorm
  • DTTZ: Tozeur, Tunisia
        Temperature, Sand/Sandstorm
  • GQPA: Atar, Mauritania
        Temperature, Dust/Duststorm
  • KBUF: Buffalo, Greater Buffalo Intl Arpt, NY, United States
        Precipitation Type/Intensity, Thunderstorm
  • KGVQ: Batavia, NY, United States
        Precipitation Type/Intensity, Thunderstorm
  • KGYR: Goodyear Municipal, AZ, United States
        Temperature, Visibility
  • KIAG: Niagara Falls, NY, United States
        Precipitation Type/Intensity, Thunderstorm
  • KINK: Wink, Winkler County Airport, TX, United States
        Wind, Thunderstorm
  • KK70: Key Largo, FL, United States
        Dewpoint, Thunderstorm
  • KLBB: Lubbock, Lubbock Intl Arpt, TX, United States
        Wind, Dust/Duststorm
  • KMLC: McAlester, McAlester Regional Airport, OK, United States
        Hourly Precip Total, Thunderstorm
  • KMWN: Mount Washington, NH, United States
        Wind, Visibility
  • KOQT: Oak Ridge, TN, United States
        Precipitation Type/Intensity, Hourly Precip Total
  • KPIH: Pocatello, Pocatello Regional Airport, ID, United States
        Wind, Thunderstorm
  • KSJT: San Angelo, Mathis Field, TX, United States
        Precipitation Type/Intensity, Hourly Precip Total
  • KVJI: Abingdon, VA, United States
        Precipitation Type/Intensity, Hourly Precip Total
  • LFLB: Chambery / Aix-Les-Bains, France
        Precipitation Type/Intensity, Thunderstorm
  • MMUN: Cancun Intl Arpt, Mexico
        Dewpoint, Smoke
  • MMVA: Villahermosa, Mexico
        Dewpoint, Smoke
  • MNRS: Rivas, Nicaragua
        Dewpoint, Thunderstorm
  • MPDA: David, Panama
        Dewpoint, Thunderstorm
  • NZSP: Amundsen-Scott Stn, Antarctica
        Temperature, Ice Crystals/Diamond Dust
  • ORNI: Al-ashraf, Iraq
        Temperature, Dust/Duststorm
  • ROMD: Minamidaitojima, Japan
        Dewpoint, Precipitation Type/Intensity
  • RORK: Kitadaito Island, Japan
        Dewpoint, Precipitation Type/Intensity
  • SKSP: San Andres Isla / Sesquicentenario, Colombia
        Dewpoint, Thunderstorm
  • SMJP: Johan A. Pengel, Suriname
        Precipitation Type/Intensity, Thunderstorm
  • SMZO: Paramaribo, Suriname
        Dewpoint, Thunderstorm
  • SPJL: Juliaca, Peru
        Pressure, Bird Hazard
  • SYCJ: Georgetown/Cheddi Jagan Arpt, Guyana
        Dewpoint, Thunderstorm
  • VABB: Bombay / Santacruz, India
        Dewpoint, Thunderstorm
  • VOTV: Thiruvananthapuram, India
        Dewpoint, Precipitation Type/Intensity
  • VVCI: Cat Bi, Viet Nam
        Dewpoint, Thunderstorm
  • WBSB: Brunei Airport, Brunei
        Dewpoint, Thunderstorm
  • ZJSY: Sanya/Fenghuang, China
        Dewpoint, Thunderstorm


95 unidentified stations (out of a total of 165 documented unknown stations)

  • ENUN (OLD)
  • EQYE (OLD)
  • EQYF (OLD)
  • EQYT (OLD)
  • EQYV (OLD)
  • FCOD (NEW)
  • HESX (NEW)
  • HTIB (OLD)
  • K0D8 (NEW)
  • K0W3 (NEW)
  • K10U (NEW)
  • K1B9 (NEW)
  • K1D8 (NEW)
  • K1K8 (NEW)
  • K2M8 (NEW)
  • K2R2 (NEW)
  • K3K7 (NEW)
  • K3W7 (NEW)
  • K42A (NEW)
  • K49B (NEW)
  • K4B8 (NEW)
  • K60R (NEW)
  • K8V7 (NEW)
  • K9Y1 (NEW)
  • KACZ (NEW)
  • KANR (NEW)
  • KBFA (NEW)
  • KC08 (NEW)
  • KCPP (NEW)
  • KCSB (NEW)
  • KD09 (NEW)
  • KDRP (NEW)
  • KE01 (NEW)
  • KE57 (NEW)
  • KE77 (NEW)
  • KETO (NEW)
  • KF95 (NEW)
  • KFOM (NEW)
  • KGDK (NEW)
  • KHVC (NEW)
  • KI40 (NEW)
  • KI95 (NEW)
  • KK83 (NEW)
  • KMCZ (NEW)
  • KMKQ (NEW)
  • KN79 (NEW)
  • KOYE (NEW)
  • KQA8 (OLD)
  • KQAL (OLD)
  • KQB3 (OLD)
  • KQD3 (OLD)
  • KQEK (OLD)
  • KQGE (OLD)
  • KQHB (OLD)
  • KQHC (OLD)
  • KQJQ (NEW)
  • KQNE (NEW)
  • KQOA (OLD)
  • KQOO (NEW)
  • KQRD (OLD)
  • KQRP (NEW)
  • KQX2 (OLD)
  • KQXH (OLD)
  • KS12 (NEW)
  • KSBX (NEW)
  • KTQV (OLD)
  • KU64 (NEW)
  • KUWL (NEW)
  • KVGN (NEW)
  • KXIF (OLD)
  • LETU (OLD)
  • LIRY (NEW)
  • LRBV (NEW)
  • LTFO (OLD)
  • MGMT (OLD)
  • MGTU (OLD)
  • MMGA (NEW)
  • NFVB (NEW)
  • NZQN (NEW)
  • OEAR (OLD)
  • OEMN (NEW)
  • OERS (NEW)
  • OKKK (NEW)
  • PACX (NEW)
  • PANU (NEW)
  • PAPE (NEW)
  • PFKO (NEW)
  • PFTO (NEW)
  • PFZK (NEW)
  • SKGO (NEW)
  • UBBZ (NEW)
  • VDSA (NEW)
  • VOGA (NEW)
  • WILL (NEW)
  • YBSU (NEW)